Terminal Aerodrome Forecast
Issued by NWS

Home | Current Version | Previous Version | Text Only | Print | Product List | Glossary On
Versions: 1 2 3 4 5 6 7 8 9 10 11 12 13 14 15 16 17 18 19 20 21
000
FTUS41 KOKX 230500 RRA
TAFSWF
TAF
KSWF 230544Z 2306/2412 VRB04KT P6SM FEW250
     FM231200 25009KT P6SM SCT050 BKN250 PROB30 2319/2324 5SM TSRA
      BKN050CB
     FM240000 28006KT P6SM BKN050 BKN150 PROB30 2400/2405 5SM TSRA
      BKN050CB
     FM240500 31007KT P6SM BKN120
     FM240900 35007KT P6SM BKN120
      TEMPO 2409/2412 4SM BR
      AMD NOT SKED=

USA.gov is the U.S. government's official web portal to all federal, state and local government web resources and services.